createdAt,value
2022-08-17T00:02:10.901Z,6.85
2022-08-17T00:04:51.144Z,11.30
2022-08-17T00:07:17.687Z,6.03
2022-08-17T00:09:44.192Z,6.72
2022-08-17T00:12:43.031Z,7.68
2022-08-17T00:14:57.285Z,8.18
2022-08-17T00:17:23.945Z,8.43
2022-08-17T00:19:50.457Z,8.95
2022-08-17T00:22:34.181Z,6.88
2022-08-17T00:25:09.496Z,9.40
2022-08-17T00:27:37.008Z,8.95
2022-08-17T00:30:06.189Z,7.25
2022-08-17T00:33:14.906Z,10.95
2022-08-17T00:35:45.291Z,7.65
2022-08-17T00:38:12.341Z,9.63
2022-08-17T00:40:44.795Z,8.15
2022-08-17T00:43:22.207Z,7.68
2022-08-17T00:45:49.589Z,8.75
2022-08-17T00:48:27.197Z,8.68
2022-08-17T00:51:02.223Z,8.15
2022-08-17T00:53:31.301Z,8.10
2022-08-17T00:56:01.657Z,8.77
2022-08-17T00:58:36.286Z,8.30
2022-08-17T01:01:04.333Z,8.38
2022-08-17T01:03:31.246Z,7.95
2022-08-17T01:06:01.471Z,8.13
2022-08-17T01:08:31.001Z,7.70
2022-08-17T01:11:02.252Z,8.57
2022-08-17T01:13:38.154Z,10.63
2022-08-17T01:16:26.697Z,7.13
2022-08-17T01:18:57.339Z,9.20
2022-08-17T01:22:11.450Z,6.47
2022-08-17T01:24:42.954Z,6.00
2022-08-17T01:27:10.963Z,10.80
2022-08-17T01:29:39.383Z,6.63
2022-08-17T01:32:07.635Z,5.45
2022-08-17T01:34:42.101Z,5.95
2022-08-17T01:37:10.119Z,5.82
2022-08-17T01:39:56.131Z,8.77
2022-08-17T01:42:22.750Z,6.13
2022-08-17T01:44:55.073Z,5.72
2022-08-17T01:47:21.728Z,7.78
2022-08-17T01:49:48.315Z,6.28
2022-08-17T01:52:15.425Z,7.40
2022-08-17T01:54:45.836Z,6.05
2022-08-17T01:57:12.714Z,5.72
2022-08-17T01:59:39.272Z,5.15
2022-08-17T02:02:07.320Z,7.75
2022-08-17T02:04:34.680Z,8.77
2022-08-17T02:07:01.225Z,11.95
2022-08-17T02:09:31.460Z,7.70
2022-08-17T02:12:00.390Z,6.63
2022-08-17T02:14:46.962Z,6.32
2022-08-17T02:17:13.552Z,7.60
2022-08-17T02:19:40.488Z,5.78
2022-08-17T02:22:07.020Z,6.70
2022-08-17T02:25:01.188Z,6.97
2022-08-17T02:27:24.427Z,7.35
2022-08-17T02:29:51.132Z,5.65
2022-08-17T02:32:27.964Z,6.90
2022-08-17T02:34:57.282Z,5.97
2022-08-17T02:37:25.043Z,5.05
2022-08-17T02:39:51.630Z,8.32
2022-08-17T02:42:18.518Z,9.23
2022-08-17T02:44:45.079Z,5.80
2022-08-17T02:47:11.886Z,6.35
2022-08-17T02:49:38.431Z,7.68
2022-08-17T02:52:07.234Z,6.65
2022-08-17T02:54:39.654Z,8.20
2022-08-17T02:57:09.421Z,9.80
2022-08-17T02:59:35.974Z,5.82
2022-08-17T03:02:11.013Z,5.43
2022-08-17T03:04:38.198Z,7.93
2022-08-17T03:07:05.472Z,7.43
2022-08-17T03:09:32.450Z,5.47
2022-08-17T03:12:12.745Z,8.10
2022-08-17T03:14:43.363Z,5.57
2022-08-17T03:17:11.263Z,8.10
2022-08-17T03:19:44.298Z,12.85
2022-08-17T03:22:34.707Z,14.95
2022-08-17T03:24:57.695Z,7.80
2022-08-17T03:27:24.232Z,6.95
2022-08-17T03:29:50.787Z,9.80
2022-08-17T03:32:17.640Z,10.43
2022-08-17T03:34:44.179Z,6.50
2022-08-17T03:37:10.755Z,7.13
2022-08-17T03:39:37.348Z,5.43
2022-08-17T03:42:09.117Z,6.50
2022-08-17T03:44:57.798Z,6.60
2022-08-17T03:47:42.975Z,6.65
2022-08-17T03:50:29.757Z,7.82
2022-08-17T03:53:15.236Z,13.30
2022-08-17T03:56:01.128Z,9.90
2022-08-17T03:58:27.673Z,6.22
2022-08-17T04:00:55.040Z,14.10
2022-08-17T04:03:21.675Z,11.60
2022-08-17T04:05:48.216Z,9.35
2022-08-17T04:08:14.796Z,8.40
2022-08-17T04:10:44.862Z,6.75
2022-08-17T04:13:12.314Z,8.93
2022-08-17T04:15:38.859Z,6.78
2022-08-17T04:18:07.441Z,6.28
2022-08-17T04:20:34.415Z,7.40
2022-08-17T04:23:15.502Z,6.60
2022-08-17T04:25:45.787Z,7.00
2022-08-17T04:28:15.794Z,8.75
2022-08-17T04:30:45.249Z,8.40
2022-08-17T04:33:18.296Z,6.60
2022-08-17T04:35:48.403Z,8.50
2022-08-17T04:38:17.989Z,7.82
2022-08-17T04:41:03.576Z,9.82
2022-08-17T04:43:32.062Z,11.18
2022-08-17T04:46:04.917Z,7.75
2022-08-17T04:48:36.894Z,7.05
2022-08-17T04:51:17.199Z,10.07
2022-08-17T04:53:51.087Z,7.70
2022-08-17T04:56:22.952Z,11.75
2022-08-17T04:58:51.366Z,9.48
2022-08-17T05:01:23.912Z,7.43
2022-08-17T05:03:53.497Z,6.80
2022-08-17T05:06:20.549Z,8.63
2022-08-17T05:08:47.112Z,7.50
2022-08-17T05:11:14.534Z,10.63
2022-08-17T05:13:41.190Z,9.18
2022-08-17T05:16:09.195Z,7.82
2022-08-17T05:18:37.303Z,10.93
2022-08-17T05:21:04.162Z,7.80
2022-08-17T05:23:37.871Z,11.30
2022-08-17T05:26:25.524Z,9.68
2022-08-17T05:28:53.866Z,7.45
2022-08-17T05:31:20.812Z,11.48
2022-08-17T05:33:47.340Z,11.02
2022-08-17T05:36:41.743Z,8.13
2022-08-17T05:39:02.719Z,11.25
2022-08-17T05:41:29.230Z,7.78
2022-08-17T05:43:56.579Z,9.85
2022-08-17T05:46:32.972Z,9.00
2022-08-17T05:49:03.658Z,9.10
2022-08-17T05:51:39.285Z,9.63
2022-08-17T05:54:08.779Z,7.70
2022-08-17T05:57:00.033Z,8.70
2022-08-17T05:59:41.949Z,8.50
2022-08-17T06:02:23.734Z,11.32
2022-08-17T06:05:16.820Z,9.63
2022-08-17T06:08:12.004Z,10.13
2022-08-17T06:11:04.899Z,10.40
2022-08-17T06:14:07.423Z,12.70
2022-08-17T06:16:38.485Z,11.18
2022-08-17T06:19:19.547Z,12.20
2022-08-17T06:21:50.644Z,11.55
2022-08-17T06:24:34.317Z,12.48
2022-08-17T06:27:37.257Z,12.68
2022-08-17T06:30:20.626Z,10.60
2022-08-17T06:32:51.124Z,11.30
2022-08-17T06:36:02.506Z,10.95
2022-08-17T06:38:41.695Z,10.75
2022-08-17T06:41:22.377Z,11.95
2022-08-17T06:44:03.924Z,12.07
2022-08-17T06:46:43.656Z,11.65
2022-08-17T06:49:21.905Z,13.70
2022-08-17T06:51:58.501Z,15.50
2022-08-17T06:54:41.415Z,16.73
2022-08-17T06:57:20.268Z,17.23
2022-08-17T06:59:56.220Z,20.65
2022-08-17T07:02:52.351Z,21.20
2022-08-17T07:05:22.311Z,24.05
2022-08-17T07:08:12.886Z,31.17
2022-08-17T07:10:45.176Z,32.70
2022-08-17T07:13:29.815Z,31.45
2022-08-17T07:16:04.889Z,32.80
2022-08-17T07:18:33.243Z,30.45
2022-08-17T07:21:26.556Z,31.38
2022-08-17T07:24:06.739Z,37.17
2022-08-17T07:26:33.281Z,36.42
2022-08-17T07:29:02.320Z,35.85
2022-08-17T07:31:31.567Z,42.17
2022-08-17T07:34:06.730Z,40.05
2022-08-17T07:36:34.166Z,41.30
2022-08-17T07:39:02.847Z,42.53
2022-08-17T07:41:57.982Z,51.00
2022-08-17T07:44:20.488Z,74.53
2022-08-17T07:47:10.658Z,57.03
2022-08-17T07:49:40.820Z,91.88
2022-08-17T07:52:51.496Z,84.55
2022-08-17T07:55:29.448Z,70.28
2022-08-17T07:57:59.215Z,61.60
2022-08-17T08:00:32.284Z,60.22
2022-08-17T08:03:13.395Z,62.90
2022-08-17T08:05:57.383Z,89.78
2022-08-17T08:08:37.365Z,81.03
2022-08-17T08:11:09.519Z,73.65
2022-08-17T08:13:42.522Z,90.80
2022-08-17T08:16:26.432Z,111.72
2022-08-17T08:18:59.859Z,111.22
2022-08-17T08:21:51.341Z,117.82
2022-08-17T08:24:30.810Z,124.40
2022-08-17T08:27:28.618Z,143.73
2022-08-17T08:30:06.273Z,154.35
2022-08-17T08:32:54.048Z,179.45
2022-08-17T08:35:40.399Z,197.65
2022-08-17T08:38:39.467Z,177.57
2022-08-17T08:41:18.655Z,246.82
2022-08-17T08:44:06.911Z,216.75
2022-08-17T08:46:51.989Z,220.32
2022-08-17T08:49:59.497Z,243.45
2022-08-17T08:52:41.527Z,262.08
2022-08-17T08:55:20.289Z,242.18
2022-08-17T08:58:05.933Z,269.48
2022-08-17T09:00:38.300Z,232.30
2022-08-17T09:03:51.544Z,264.15
2022-08-17T09:06:57.987Z,216.05
2022-08-17T09:09:49.624Z,350.63
2022-08-17T09:12:29.209Z,303.63
2022-08-17T09:15:27.443Z,279.88
2022-08-17T09:19:02.508Z,300.52
2022-08-17T09:21:03.361Z,286.95
2022-08-17T09:23:39.435Z,281.45
2022-08-17T09:26:21.004Z,358.63
2022-08-17T09:28:52.023Z,302.60
2022-08-17T09:31:35.458Z,298.55
2022-08-17T09:34:19.472Z,313.05
2022-08-17T09:37:19.441Z,328.90
2022-08-17T09:40:07.420Z,367.00
2022-08-17T09:42:47.471Z,216.25
2022-08-17T09:45:28.230Z,236.52
2022-08-17T09:48:08.272Z,248.63
2022-08-17T09:51:03.708Z,212.05
2022-08-17T09:53:32.308Z,217.93
2022-08-17T09:56:11.059Z,231.32
2022-08-17T09:58:59.295Z,236.77
2022-08-17T10:01:42.565Z,257.77
2022-08-17T10:04:29.303Z,268.20
2022-08-17T10:07:10.114Z,233.20
2022-08-17T10:10:14.325Z,232.70
2022-08-17T10:13:15.717Z,201.30
2022-08-17T10:16:01.399Z,156.48
2022-08-17T10:18:33.201Z,146.05
2022-08-17T10:21:24.550Z,140.15
2022-08-17T10:24:33.074Z,109.13
2022-08-17T10:27:03.158Z,114.53
2022-08-17T10:29:53.767Z,128.13
2022-08-17T10:32:32.140Z,110.68
2022-08-17T10:35:16.641Z,104.32
2022-08-17T10:38:21.528Z,112.43
2022-08-17T10:41:24.101Z,96.47
2022-08-17T10:44:37.059Z,92.05
2022-08-17T10:47:08.500Z,80.03
2022-08-17T10:49:47.402Z,71.65
2022-08-17T10:52:20.077Z,69.53
2022-08-17T10:54:58.306Z,66.00
2022-08-17T10:57:31.816Z,55.33
2022-08-17T11:00:11.083Z,57.38
2022-08-17T11:02:50.446Z,52.15
2022-08-17T11:05:43.479Z,48.38
2022-08-17T11:08:51.833Z,46.33
2022-08-17T11:11:39.309Z,46.88
2022-08-17T11:14:27.239Z,46.17
2022-08-17T11:17:29.241Z,48.75
2022-08-17T11:20:26.866Z,42.20
2022-08-17T11:23:05.107Z,43.00
2022-08-17T11:25:33.801Z,47.80
2022-08-17T11:28:35.830Z,41.08
2022-08-17T11:31:37.899Z,36.88
2022-08-17T11:34:21.345Z,40.28
2022-08-17T11:37:11.159Z,37.97
2022-08-17T11:39:43.570Z,40.83
2022-08-17T11:42:37.497Z,37.23
2022-08-17T11:45:46.345Z,39.08
2022-08-17T11:48:36.730Z,46.78
2022-08-17T11:51:34.335Z,37.13
2022-08-17T11:57:00.589Z,45.85
2022-08-17T11:59:33.225Z,49.22
2022-08-17T12:02:01.977Z,42.38
2022-08-17T12:04:33.017Z,39.15
2022-08-17T12:07:13.159Z,36.00
2022-08-17T12:09:44.670Z,27.88
2022-08-17T12:12:15.874Z,27.45
2022-08-17T12:15:09.446Z,37.55
2022-08-17T12:17:40.739Z,24.33
2022-08-17T12:20:35.070Z,26.30
2022-08-17T12:23:10.691Z,24.93
2022-08-17T12:25:49.538Z,21.30
2022-08-17T12:28:29.883Z,21.38
2022-08-17T12:31:02.530Z,20.23
2022-08-17T12:33:29.675Z,23.00
2022-08-17T12:36:00.022Z,22.95
2022-08-17T12:38:33.243Z,21.95
2022-08-17T12:41:21.619Z,23.80
2022-08-17T12:44:12.282Z,23.35
2022-08-17T12:47:10.679Z,22.15
2022-08-17T12:49:39.564Z,22.30
2022-08-17T12:52:25.028Z,22.90
2022-08-17T12:54:53.540Z,23.88
2022-08-17T12:57:33.656Z,22.58
2022-08-17T13:00:20.556Z,23.33
2022-08-17T13:03:02.390Z,23.33
2022-08-17T13:05:37.371Z,24.25
2022-08-17T13:08:24.040Z,23.10
2022-08-17T13:11:02.028Z,23.63
2022-08-17T13:13:31.662Z,24.52
2022-08-17T13:16:05.635Z,23.80
2022-08-17T13:19:01.385Z,22.77
2022-08-17T13:21:30.595Z,23.10
2022-08-17T13:24:00.113Z,23.17
2022-08-17T13:26:36.919Z,21.70
2022-08-17T13:29:28.268Z,20.90
2022-08-17T13:32:19.799Z,20.90
2022-08-17T13:35:14.397Z,19.85
2022-08-17T13:37:58.575Z,20.27
2022-08-17T13:40:30.343Z,19.05
2022-08-17T13:42:57.274Z,17.92
2022-08-17T13:45:39.574Z,18.23
2022-08-17T13:48:12.394Z,18.80
2022-08-17T13:50:48.232Z,19.13
2022-08-17T13:53:32.824Z,19.52
2022-08-17T13:56:04.457Z,17.98
2022-08-17T13:58:36.458Z,18.92
2022-08-17T14:01:29.311Z,20.30
2022-08-17T14:03:56.969Z,18.70
2022-08-17T14:06:51.820Z,20.23
2022-08-17T14:09:12.527Z,20.38
2022-08-17T14:11:39.099Z,18.80
2022-08-17T14:14:05.628Z,23.02
2022-08-17T14:16:32.206Z,17.20
2022-08-17T14:18:58.833Z,17.15
2022-08-17T14:21:25.398Z,16.42
2022-08-17T14:23:54.939Z,17.15
2022-08-17T14:26:21.754Z,17.75
2022-08-17T14:28:54.646Z,24.83
2022-08-17T14:31:23.458Z,25.25
2022-08-17T14:33:49.999Z,24.23
2022-08-17T14:36:16.567Z,26.08
2022-08-17T14:38:45.016Z,23.17
2022-08-17T14:41:11.687Z,23.70
2022-08-17T14:43:39.846Z,21.90
2022-08-17T14:46:06.714Z,21.95
2022-08-17T14:48:38.484Z,20.40
2022-08-17T14:51:05.361Z,21.23
2022-08-17T14:53:32.170Z,20.40
2022-08-17T14:55:58.757Z,22.30
2022-08-17T14:58:26.059Z,21.70
2022-08-17T15:00:52.708Z,22.75
2022-08-17T15:03:19.447Z,20.98
2022-08-17T15:05:46.748Z,20.42
2022-08-17T15:08:13.284Z,22.80
2022-08-17T15:10:39.835Z,20.60
2022-08-17T15:13:16.987Z,20.67
2022-08-17T15:15:43.818Z,20.25
2022-08-17T15:18:10.316Z,19.73
2022-08-17T15:20:36.853Z,19.75
2022-08-17T15:23:03.441Z,21.27
2022-08-17T15:25:32.969Z,23.15
2022-08-17T15:28:00.551Z,23.05
2022-08-17T15:30:28.045Z,22.88
2022-08-17T15:32:57.961Z,20.55
2022-08-17T15:35:28.756Z,20.95
2022-08-17T15:38:08.042Z,20.98
2022-08-17T15:40:41.314Z,19.83
2022-08-17T15:43:11.616Z,20.33
2022-08-17T15:45:38.783Z,20.80
2022-08-17T15:48:05.375Z,21.00
2022-08-17T15:50:32.024Z,21.05
2022-08-17T15:53:00.931Z,22.92
2022-08-17T15:55:30.455Z,24.45
2022-08-17T15:57:57.299Z,21.80
2022-08-17T16:00:24.388Z,23.80
2022-08-17T16:03:45.218Z,22.90
2022-08-17T16:05:40.695Z,23.73
2022-08-17T16:08:07.901Z,22.35
2022-08-17T16:10:35.566Z,24.48
2022-08-17T16:13:03.760Z,23.95
2022-08-17T16:15:31.724Z,27.45
2022-08-17T16:17:59.061Z,24.02
2022-08-17T16:20:26.145Z,26.00
2022-08-17T16:22:53.137Z,26.25
2022-08-17T16:25:52.533Z,26.45
2022-08-17T16:28:16.211Z,27.92
2022-08-17T16:30:43.490Z,29.02
2022-08-17T16:33:11.652Z,31.02
2022-08-17T16:35:41.825Z,28.65
2022-08-17T16:38:10.870Z,27.35
2022-08-17T16:40:37.488Z,27.88
2022-08-17T16:43:10.323Z,28.25
2022-08-17T16:45:40.718Z,28.58
2022-08-17T16:48:08.121Z,27.98
2022-08-17T16:50:35.548Z,28.45
2022-08-17T16:53:06.429Z,27.50
2022-08-17T16:55:35.501Z,24.83
2022-08-17T16:58:04.361Z,27.92
2022-08-17T17:00:33.139Z,24.30
2022-08-17T17:03:19.715Z,21.85
2022-08-17T17:06:03.811Z,19.45
2022-08-17T17:08:44.521Z,20.55
2022-08-17T17:11:19.573Z,18.23
2022-08-17T17:14:01.633Z,18.17
2022-08-17T17:16:44.994Z,18.02
2022-08-17T17:19:16.451Z,16.77
2022-08-17T17:21:58.652Z,18.23
2022-08-17T17:24:36.896Z,19.20
2022-08-17T17:27:25.563Z,23.45
2022-08-17T17:29:59.277Z,25.50
2022-08-17T17:32:25.752Z,24.67
2022-08-17T17:35:01.324Z,26.83
2022-08-17T17:37:33.299Z,22.20
2022-08-17T17:40:06.603Z,21.67
2022-08-17T17:42:33.755Z,20.77
2022-08-17T17:45:06.178Z,20.92
2022-08-17T17:47:33.312Z,20.37
2022-08-17T17:50:02.194Z,21.65
2022-08-17T17:52:47.605Z,21.58
2022-08-17T17:55:25.971Z,23.00
2022-08-17T17:58:11.215Z,25.02
2022-08-17T18:00:53.192Z,27.73
2022-08-17T18:03:53.385Z,27.25
2022-08-17T18:06:45.470Z,24.10
2022-08-17T18:09:26.869Z,24.55
2022-08-17T18:12:04.619Z,29.27
2022-08-17T18:15:10.363Z,41.40
2022-08-17T18:17:37.003Z,73.00
2022-08-17T18:20:07.071Z,104.95
2022-08-17T18:22:33.867Z,150.45
2022-08-17T18:25:00.816Z,160.65
2022-08-17T18:27:39.070Z,216.45
2022-08-17T18:30:14.461Z,237.85
2022-08-17T18:32:43.568Z,169.88
2022-08-17T18:35:10.205Z,167.65
2022-08-17T18:37:39.562Z,199.35
2022-08-17T18:40:19.909Z,230.70
2022-08-17T18:43:04.531Z,240.20
2022-08-17T18:45:40.893Z,217.85
2022-08-17T18:48:26.240Z,284.85
2022-08-17T18:50:56.623Z,314.70
2022-08-17T18:53:26.669Z,439.45
2022-08-17T18:56:18.855Z,410.58
2022-08-17T18:59:02.574Z,541.08
2022-08-17T19:01:52.714Z,521.47
2022-08-17T19:04:35.241Z,497.48
2022-08-17T19:07:24.566Z,575.45
2022-08-17T19:10:21.120Z,596.63
2022-08-17T19:12:53.728Z,616.70
2022-08-17T19:15:30.112Z,515.27
2022-08-17T19:18:15.837Z,547.35
2022-08-17T19:20:58.966Z,471.10
2022-08-17T19:23:54.630Z,486.40
2022-08-17T19:29:19.461Z,556.83
2022-08-17T19:31:48.918Z,556.60
2022-08-17T19:34:17.584Z,470.58
2022-08-17T19:37:09.667Z,512.35
2022-08-17T19:39:55.615Z,563.20
2022-08-17T19:42:52.699Z,582.47
2022-08-17T19:45:19.288Z,624.33
2022-08-17T19:48:14.474Z,623.25
2022-08-17T19:51:10.429Z,636.47
2022-08-17T19:54:05.553Z,642.08
2022-08-17T19:57:02.902Z,616.90
2022-08-17T19:59:57.552Z,466.00
2022-08-17T20:02:51.405Z,551.80
2022-08-17T20:05:28.887Z,447.40
2022-08-17T20:08:02.487Z,571.33
2022-08-17T20:10:54.811Z,521.08
2022-08-17T20:13:49.676Z,547.38
2022-08-17T20:18:55.076Z,425.25
2022-08-17T20:21:28.861Z,416.60
2022-08-17T20:24:06.472Z,443.42
2022-08-17T20:26:55.208Z,323.45
2022-08-17T20:29:37.845Z,385.30
2022-08-17T20:32:17.692Z,410.58
2022-08-17T20:34:46.481Z,446.52
2022-08-17T20:37:12.952Z,416.42
2022-08-17T20:39:44.508Z,428.75
2022-08-17T20:42:20.180Z,420.83
2022-08-17T20:44:50.680Z,400.17
2022-08-17T20:48:00.838Z,387.15
2022-08-17T20:50:40.615Z,354.48
2022-08-17T20:53:10.075Z,388.75
2022-08-17T20:55:52.061Z,380.73
2022-08-17T20:58:30.098Z,378.70
2022-08-17T21:00:57.838Z,328.98
2022-08-17T21:03:24.477Z,297.85
2022-08-17T21:06:15.314Z,304.90
2022-08-17T21:08:53.199Z,245.48
2022-08-17T21:11:57.319Z,257.70
2022-08-17T21:14:29.483Z,223.25
2022-08-17T21:17:12.216Z,184.60
2022-08-17T21:20:17.410Z,133.27
2022-08-17T21:23:05.271Z,132.55
2022-08-17T21:25:53.327Z,150.48
2022-08-17T21:28:38.064Z,152.90
2022-08-17T21:31:32.032Z,141.02
2022-08-17T21:34:16.038Z,130.30
2022-08-17T21:36:45.830Z,126.90
2022-08-17T21:39:33.370Z,133.27
2022-08-17T21:42:00.664Z,150.07
2022-08-17T21:44:47.892Z,115.72
2022-08-17T21:47:23.585Z,91.07
2022-08-17T21:49:51.723Z,89.63
2022-08-17T21:52:21.993Z,90.43
2022-08-17T21:54:54.868Z,81.85
2022-08-17T21:57:27.341Z,89.53
2022-08-17T21:59:58.819Z,89.72
2022-08-17T22:02:31.827Z,95.80
2022-08-17T22:05:02.061Z,99.32
2022-08-17T22:07:39.910Z,91.47
2022-08-17T22:10:27.336Z,97.43
2022-08-17T22:13:17.703Z,101.72
2022-08-17T22:15:47.852Z,105.13
2022-08-17T22:18:21.334Z,99.28
2022-08-17T22:20:54.745Z,93.47
2022-08-17T22:23:53.352Z,104.97
2022-08-17T22:26:23.036Z,103.40
2022-08-17T22:28:56.447Z,85.05
2022-08-17T22:31:25.891Z,87.05
2022-08-17T22:34:10.908Z,73.10
2022-08-17T22:36:39.418Z,72.50
2022-08-17T22:39:08.919Z,75.68
2022-08-17T22:41:48.107Z,71.53
2022-08-17T22:44:26.239Z,76.00
2022-08-17T22:46:58.915Z,57.70
2022-08-17T22:49:35.236Z,64.00
2022-08-17T22:52:32.387Z,61.03
2022-08-17T22:55:26.122Z,68.43
2022-08-17T22:58:11.437Z,65.63
2022-08-17T23:00:47.400Z,67.90
2022-08-17T23:03:23.619Z,59.13
2022-08-17T23:06:08.777Z,53.55
2022-08-17T23:08:48.856Z,48.85
2022-08-17T23:11:15.623Z,49.10
2022-08-17T23:13:42.248Z,58.72
2022-08-17T23:16:08.892Z,56.20
2022-08-17T23:18:36.374Z,46.78
2022-08-17T23:21:03.160Z,50.30
2022-08-17T23:23:29.836Z,49.10
2022-08-17T23:25:56.368Z,71.70
2022-08-17T23:28:23.030Z,36.70
2022-08-17T23:30:49.642Z,27.88
2022-08-17T23:33:30.019Z,27.13
2022-08-17T23:35:59.902Z,46.50
2022-08-17T23:38:27.402Z,43.28
2022-08-17T23:40:55.472Z,38.83
2022-08-17T23:43:24.270Z,25.95
2022-08-17T23:45:53.999Z,28.23
2022-08-17T23:48:35.325Z,23.73
2022-08-17T23:51:05.870Z,18.83
2022-08-17T23:53:34.871Z,26.58
2022-08-17T23:56:09.386Z,21.63
2022-08-17T23:58:38.552Z,22.45
